createdAt,value
2018-09-23T00:00:55.165Z,12.09
2018-09-23T00:01:55.409Z,11.99
2018-09-23T00:02:55.129Z,11.99
2018-09-23T00:03:55.387Z,12.04
2018-09-23T00:04:55.361Z,12.05
2018-09-23T00:05:55.082Z,12.06
2018-09-23T00:06:55.338Z,11.9
2018-09-23T00:07:55.066Z,12.06
2018-09-23T00:08:55.301Z,12.05
2018-09-23T00:09:55.338Z,11.97
2018-09-23T00:10:55.275Z,12.02
2018-09-23T00:11:55.256Z,11.97
2018-09-23T00:12:55.512Z,11.97
2018-09-23T00:13:55.494Z,12.01
2018-09-23T00:14:55.209Z,11.97
2018-09-23T00:15:55.193Z,11.94
2018-09-23T00:16:55.445Z,11.89
2018-09-23T00:17:55.160Z,11.93
2018-09-23T00:18:55.148Z,11.97
2018-09-23T00:19:55.393Z,12.02
2018-09-23T00:20:55.125Z,11.99
2018-09-23T00:21:55.104Z,11.96
2018-09-23T00:22:55.086Z,12.01
2018-09-23T00:23:55.078Z,11.89
2018-09-23T00:24:55.325Z,11.97
2018-09-23T00:25:55.312Z,11.99
2018-09-23T00:26:55.029Z,11.9
2018-09-23T00:27:55.006Z,11.97
2018-09-23T00:28:54.993Z,11.97
2018-09-23T00:29:55.242Z,12.02
2018-09-23T00:30:54.965Z,11.94
2018-09-23T00:31:54.695Z,12.01
2018-09-23T00:32:55.195Z,11.96
2018-09-23T00:33:54.914Z,12.02
2018-09-23T00:34:54.635Z,12.01
2018-09-23T00:35:55.146Z,12.08
2018-09-23T00:36:54.865Z,11.97
2018-09-23T00:37:54.589Z,12.06
2018-09-23T00:38:54.837Z,11.94
2018-09-23T00:39:54.555Z,11.94
2018-09-23T00:40:55.070Z,11.93
2018-09-23T00:41:55.051Z,11.97
2018-09-23T00:42:54.778Z,11.96
2018-09-23T00:43:55.023Z,11.94
2018-09-23T00:44:54.742Z,11.94
2018-09-23T00:45:54.730Z,12.01
2018-09-23T00:46:54.980Z,11.96
2018-09-23T00:47:54.696Z,12.02
2018-09-23T00:48:54.690Z,11.93
2018-09-23T00:49:54.941Z,11.93
2018-09-23T00:50:54.663Z,12.01
2018-09-23T00:51:54.892Z,12.08
2018-09-23T00:52:54.625Z,12.08
2018-09-23T00:53:54.615Z,12.11
2018-09-23T00:54:54.857Z,12.06
2018-09-23T00:55:54.579Z,12.05
2018-09-23T00:56:54.561Z,12.06
2018-09-23T00:57:54.843Z,12.05
2018-09-23T00:58:54.801Z,12.13
2018-09-23T00:59:54.777Z,12.16
2018-09-23T01:00:54.228Z,12.11
2018-09-23T01:01:54.213Z,12.15
2018-09-23T01:02:54.468Z,12.06
2018-09-23T01:03:54.712Z,12.08
2018-09-23T01:04:54.698Z,12.13
2018-09-23T01:05:54.154Z,12.05
2018-09-23T01:06:54.663Z,12.08
2018-09-23T01:07:54.389Z,12.06
2018-09-23T01:08:54.370Z,12.06
2018-09-23T01:09:54.625Z,12.08
2018-09-23T01:10:54.077Z,12.12
2018-09-23T01:11:54.064Z,12.15
2018-09-23T01:12:54.576Z,12.12
2018-09-23T01:13:54.300Z,12.23
2018-09-23T01:14:54.284Z,12.15
2018-09-23T01:15:54.270Z,12.21
2018-09-23T01:16:54.251Z,12.09
2018-09-23T01:17:54.501Z,12.23
2018-09-23T01:18:53.954Z,12.24
2018-09-23T01:19:54.480Z,12.2
2018-09-23T01:20:54.193Z,12.11
2018-09-23T01:21:54.174Z,12.13
2018-09-23T01:22:54.153Z,12.2
2018-09-23T01:23:54.144Z,12.23
2018-09-23T01:24:54.395Z,12.13
2018-09-23T01:25:54.117Z,12.16
2018-09-23T01:26:54.357Z,12.21
2018-09-23T01:27:54.080Z,12.21
2018-09-23T01:28:54.075Z,12.21
2018-09-23T01:29:54.322Z,12.21
2018-09-23T01:30:53.767Z,12.16
2018-09-23T01:31:54.289Z,12.27
2018-09-23T01:32:54.003Z,12.19
2018-09-23T01:33:54.258Z,12.16
2018-09-23T01:34:53.980Z,12.24
2018-09-23T01:35:54.223Z,12.23
2018-09-23T01:36:54.209Z,12.19
2018-09-23T01:37:53.931Z,12.21
2018-09-23T01:38:53.907Z,12.23
2018-09-23T01:39:53.897Z,12.21
2018-09-23T01:40:53.883Z,12.2
2018-09-23T01:41:54.151Z,12.23
2018-09-23T01:42:53.852Z,12.24
2018-09-23T01:43:53.573Z,12.29
2018-09-23T01:44:53.823Z,12.21
2018-09-23T01:45:54.068Z,12.21
2018-09-23T01:46:54.060Z,12.16
2018-09-23T01:47:54.040Z,12.23
2018-09-23T01:48:53.502Z,12.2
2018-09-23T01:49:54.011Z,12.26
2018-09-23T01:50:53.732Z,12.24
2018-09-23T01:51:53.979Z,12.21
2018-09-23T01:52:53.695Z,12.23
2018-09-23T01:53:53.684Z,12.26
2018-09-23T01:54:53.671Z,12.24
2018-09-23T01:55:53.921Z,12.21
2018-09-23T01:56:53.906Z,12.21
2018-09-23T01:57:53.367Z,12.3
2018-09-23T01:58:53.879Z,12.24
2018-09-23T01:59:53.855Z,12.23
2018-09-23T02:00:53.594Z,12.26
2018-09-23T02:01:53.297Z,12.23
2018-09-23T02:02:53.548Z,12.24
2018-09-23T02:03:53.533Z,12.29
2018-09-23T02:04:53.517Z,12.29
2018-09-23T02:05:53.286Z,12.27
2018-09-23T02:06:53.221Z,12.37
2018-09-23T02:07:53.470Z,12.37
2018-09-23T02:08:53.724Z,12.3
2018-09-23T02:09:53.704Z,12.37
2018-09-23T02:10:53.700Z,12.31
2018-09-23T02:11:53.414Z,12.39
2018-09-23T02:12:53.453Z,12.33
2018-09-23T02:13:53.644Z,12.29
2018-09-23T02:14:53.636Z,12.3
2018-09-23T02:15:53.613Z,12.24
2018-09-23T02:16:53.336Z,12.24
2018-09-23T02:17:53.057Z,12.29
2018-09-23T02:18:53.568Z,12.34
2018-09-23T02:19:53.556Z,12.39
2018-09-23T02:20:53.532Z,12.33
2018-09-23T02:21:53.263Z,12.37
2018-09-23T02:22:53.513Z,12.29
2018-09-23T02:23:53.224Z,12.34
2018-09-23T02:24:53.212Z,12.41
2018-09-23T02:25:53.629Z,12.34
2018-09-23T02:26:53.455Z,12.41
2018-09-23T02:27:53.435Z,12.33
2018-09-23T02:28:53.155Z,12.38
2018-09-23T02:29:53.138Z,12.42
2018-09-23T02:30:53.390Z,12.41
2018-09-23T02:31:53.376Z,12.37
2018-09-23T02:32:53.385Z,12.37
2018-09-23T02:33:53.076Z,12.39
2018-09-23T02:34:53.068Z,12.44
2018-09-23T02:35:53.048Z,12.41
2018-09-23T02:36:53.301Z,12.37
2018-09-23T02:37:53.299Z,12.39
2018-09-23T02:38:53.278Z,12.37
2018-09-23T02:39:53.004Z,12.46
2018-09-23T02:40:52.970Z,12.42
2018-09-23T02:41:52.961Z,12.41
2018-09-23T02:42:52.952Z,12.49
2018-09-23T02:43:53.193Z,12.44
2018-09-23T02:44:52.907Z,12.41
2018-09-23T02:45:52.631Z,12.46
2018-09-23T02:46:52.885Z,12.49
2018-09-23T02:47:52.867Z,12.34
2018-09-23T02:48:52.845Z,12.48
2018-09-23T02:49:52.576Z,12.38
2018-09-23T02:50:53.075Z,12.38
2018-09-23T02:51:53.269Z,12.39
2018-09-23T02:52:52.787Z,12.46
2018-09-23T02:53:53.032Z,12.41
2018-09-23T02:54:52.492Z,12.41
2018-09-23T02:55:52.745Z,12.37
2018-09-23T02:56:52.992Z,12.39
2018-09-23T02:57:52.447Z,12.41
2018-09-23T02:58:52.700Z,12.39
2018-09-23T02:59:52.941Z,12.45
2018-09-23T03:00:52.675Z,12.37
2018-09-23T03:01:52.649Z,12.39
2018-09-23T03:02:52.901Z,12.39
2018-09-23T03:03:52.632Z,12.44
2018-09-23T03:04:52.880Z,12.34
2018-09-23T03:05:52.592Z,12.37
2018-09-23T03:06:52.571Z,12.34
2018-09-23T03:07:52.567Z,12.33
2018-09-23T03:08:52.280Z,12.41
2018-09-23T03:09:52.527Z,12.37
2018-09-23T03:10:52.781Z,12.38
2018-09-23T03:11:52.498Z,12.39
2018-09-23T03:12:52.488Z,12.39
2018-09-23T03:13:52.729Z,12.37
2018-09-23T03:14:52.718Z,12.38
2018-09-23T03:15:52.436Z,12.37
2018-09-23T03:16:52.683Z,12.39
2018-09-23T03:17:52.186Z,12.31
2018-09-23T03:18:52.133Z,12.42
2018-09-23T03:19:52.643Z,12.42
2018-09-23T03:20:52.366Z,12.34
2018-09-23T03:21:52.340Z,12.38
2018-09-23T03:22:52.604Z,12.29
2018-09-23T03:23:52.582Z,12.3
2018-09-23T03:24:52.306Z,12.3
2018-09-23T03:25:52.551Z,12.29
2018-09-23T03:26:52.272Z,12.3
2018-09-23T03:27:52.520Z,12.21
2018-09-23T03:28:52.500Z,12.24
2018-09-23T03:29:52.235Z,12.21
2018-09-23T03:30:52.486Z,12.3
2018-09-23T03:31:52.471Z,12.37
2018-09-23T03:32:52.191Z,12.37
2018-09-23T03:33:52.421Z,12.33
2018-09-23T03:34:51.889Z,12.31
2018-09-23T03:35:52.136Z,12.31
2018-09-23T03:36:51.864Z,12.39
2018-09-23T03:37:52.104Z,12.34
2018-09-23T03:38:52.087Z,12.3
2018-09-23T03:39:52.074Z,12.31
2018-09-23T03:40:52.074Z,12.39
2018-09-23T03:41:52.042Z,12.38
2018-09-23T03:42:52.045Z,12.31
2018-09-23T03:43:52.012Z,12.33
2018-09-23T03:44:52.009Z,12.34
2018-09-23T03:45:52.246Z,12.37
2018-09-23T03:46:52.238Z,12.42
2018-09-23T03:47:52.210Z,12.34
2018-09-23T03:48:51.940Z,12.34
2018-09-23T03:49:51.927Z,12.39
2018-09-23T03:50:51.909Z,12.41
2018-09-23T03:51:51.897Z,12.34
2018-09-23T03:52:51.889Z,12.39
2018-09-23T03:53:51.858Z,12.3
2018-09-23T03:54:52.120Z,12.37
2018-09-23T03:55:51.832Z,12.41
2018-09-23T03:56:51.815Z,12.38
2018-09-23T03:57:52.191Z,12.34
2018-09-23T03:58:51.786Z,12.33
2018-09-23T03:59:52.028Z,12.33
2018-09-23T04:00:52.020Z,12.24
2018-09-23T04:01:52.009Z,12.26
2018-09-23T04:02:51.720Z,12.23
2018-09-23T04:03:51.707Z,12.24
2018-09-23T04:04:51.691Z,12.24
2018-09-23T04:05:51.942Z,12.26
2018-09-23T04:06:51.929Z,12.23
2018-09-23T04:07:51.378Z,12.24
2018-09-23T04:08:51.908Z,12.19
2018-09-23T04:09:51.878Z,12.19
2018-09-23T04:10:51.610Z,12.21
2018-09-23T04:11:51.586Z,12.15
2018-09-23T04:12:51.839Z,12.3
2018-09-23T04:13:51.561Z,12.23
2018-09-23T04:14:51.546Z,12.16
2018-09-23T04:15:51.798Z,12.12
2018-09-23T04:16:51.516Z,12.13
2018-09-23T04:17:51.786Z,12.19
2018-09-23T04:18:51.214Z,12.19
2018-09-23T04:19:51.469Z,12.13
2018-09-23T04:20:51.446Z,12.23
2018-09-23T04:21:51.704Z,12.24
2018-09-23T04:22:51.420Z,12.16
2018-09-23T04:23:51.400Z,12.23
2018-09-23T04:24:51.666Z,12.26
2018-09-23T04:25:51.373Z,12.19
2018-09-23T04:26:51.680Z,12.16
2018-09-23T04:27:51.343Z,12.24
2018-09-23T04:28:51.593Z,12.15
2018-09-23T04:29:51.309Z,12.21
2018-09-23T04:30:51.559Z,12.13
2018-09-23T04:31:51.022Z,12.23
2018-09-23T04:32:51.522Z,12.23
2018-09-23T04:33:51.248Z,12.21
2018-09-23T04:34:51.534Z,12.2
2018-09-23T04:35:51.491Z,12.21
2018-09-23T04:36:51.472Z,12.19
2018-09-23T04:37:50.925Z,12.2
2018-09-23T04:38:51.440Z,12.19
2018-09-23T04:39:51.452Z,12.15
2018-09-23T04:40:51.141Z,12.2
2018-09-23T04:41:51.130Z,12.23
2018-09-23T04:42:51.108Z,12.21
2018-09-23T04:43:50.834Z,12.2
2018-09-23T04:44:51.512Z,12.19
2018-09-23T04:45:51.073Z,12.15
2018-09-23T04:46:51.053Z,12.16
2018-09-23T04:47:50.770Z,12.2
2018-09-23T04:48:51.017Z,12.2
2018-09-23T04:49:50.742Z,12.24
2018-09-23T04:50:51.254Z,12.24
2018-09-23T04:51:51.437Z,12.2
2018-09-23T04:52:51.421Z,12.21
2018-09-23T04:53:50.944Z,12.27
2018-09-23T04:54:50.662Z,12.27
2018-09-23T04:55:50.914Z,12.2
2018-09-23T04:56:50.643Z,12.29
2018-09-23T04:57:51.145Z,12.26
2018-09-23T04:58:50.871Z,12.24
2018-09-23T04:59:50.849Z,12.21
2018-09-23T05:00:51.101Z,12.26
2018-09-23T05:01:50.554Z,12.27
2018-09-23T05:02:50.547Z,12.26
2018-09-23T05:03:50.792Z,12.23
2018-09-23T05:04:50.781Z,12.27
2018-09-23T05:05:50.499Z,12.27
2018-09-23T05:06:51.020Z,12.16
2018-09-23T05:07:50.466Z,12.21
2018-09-23T05:08:50.459Z,12.29
2018-09-23T05:09:50.713Z,12.24
2018-09-23T05:10:50.418Z,12.21
2018-09-23T05:11:50.405Z,12.26
2018-09-23T05:12:50.935Z,12.26
2018-09-23T05:13:50.899Z,12.26
2018-09-23T05:14:50.897Z,12.33
2018-09-23T05:15:50.617Z,12.26
2018-09-23T05:16:50.590Z,12.34
2018-09-23T05:17:50.577Z,12.37
2018-09-23T05:18:50.294Z,12.38
2018-09-23T05:19:50.284Z,12.34
2018-09-23T05:20:50.997Z,12.33
2018-09-23T05:21:50.782Z,12.33
2018-09-23T05:22:50.775Z,12.42
2018-09-23T05:23:50.479Z,12.41
2018-09-23T05:24:50.731Z,12.39
2018-09-23T05:25:50.463Z,12.42
2018-09-23T05:26:50.711Z,12.45
2018-09-23T05:27:50.160Z,12.37
2018-09-23T05:28:50.415Z,12.41
2018-09-23T05:29:50.398Z,12.39
2018-09-23T05:30:50.422Z,12.41
2018-09-23T05:31:50.625Z,12.37
2018-09-23T05:32:50.614Z,12.37
2018-09-23T05:33:50.605Z,12.45
2018-09-23T05:34:50.314Z,12.37
2018-09-23T05:35:50.304Z,12.39
2018-09-23T05:36:50.283Z,12.39
2018-09-23T05:37:50.540Z,12.41
2018-09-23T05:38:50.255Z,12.34
2018-09-23T05:39:50.504Z,12.44
2018-09-23T05:40:50.501Z,12.39
2018-09-23T05:41:49.952Z,12.46
2018-09-23T05:42:50.192Z,12.48
2018-09-23T05:43:50.483Z,12.44
2018-09-23T05:44:50.436Z,12.52
2018-09-23T05:45:50.415Z,12.42
2018-09-23T05:46:50.138Z,12.42
2018-09-23T05:47:50.383Z,12.51
2018-09-23T05:48:50.375Z,12.52
2018-09-23T05:49:50.090Z,12.48
2018-09-23T05:50:50.342Z,12.48
2018-09-23T05:51:50.063Z,12.51
2018-09-23T05:52:50.044Z,12.33
2018-09-23T05:53:50.029Z,12.46
2018-09-23T05:54:50.015Z,12.48
2018-09-23T05:55:50.257Z,12.56
2018-09-23T05:56:49.979Z,12.45
2018-09-23T05:57:50.236Z,12.49
2018-09-23T05:58:49.964Z,12.41
2018-09-23T05:59:49.934Z,12.49
2018-09-23T06:00:49.927Z,12.48
2018-09-23T06:01:49.918Z,12.48
2018-09-23T06:02:50.161Z,12.45
2018-09-23T06:03:49.900Z,12.49
2018-09-23T06:04:49.860Z,12.46
2018-09-23T06:05:49.853Z,12.42
2018-09-23T06:06:49.839Z,12.44
2018-09-23T06:07:50.112Z,12.49
2018-09-23T06:08:50.348Z,12.51
2018-09-23T06:09:49.782Z,12.48
2018-09-23T06:10:50.043Z,12.52
2018-09-23T06:11:49.503Z,12.46
2018-09-23T06:12:50.222Z,12.46
2018-09-23T06:13:49.721Z,12.56
2018-09-23T06:14:49.709Z,12.45
2018-09-23T06:15:49.702Z,12.57
2018-09-23T06:16:49.677Z,12.56
2018-09-23T06:17:49.661Z,12.48
2018-09-23T06:18:49.647Z,12.54
2018-09-23T06:19:49.896Z,12.49
2018-09-23T06:20:49.640Z,12.6
2018-09-23T06:21:49.345Z,12.48
2018-09-23T06:22:49.857Z,12.51
2018-09-23T06:23:49.848Z,12.56
2018-09-23T06:24:49.590Z,12.54
2018-09-23T06:25:49.554Z,12.52
2018-09-23T06:26:49.799Z,12.54
2018-09-23T06:27:49.515Z,12.6
2018-09-23T06:28:49.506Z,12.57
2018-09-23T06:29:49.483Z,12.59
2018-09-23T06:30:49.489Z,12.49
2018-09-23T06:31:49.734Z,12.51
2018-09-23T06:32:49.697Z,12.59
2018-09-23T06:33:49.426Z,12.51
2018-09-23T06:34:49.679Z,12.59
2018-09-23T06:35:49.672Z,12.6
2018-09-23T06:36:49.645Z,12.56
2018-09-23T06:37:49.864Z,12.66
2018-09-23T06:38:49.614Z,12.62
2018-09-23T06:39:49.632Z,12.66
2018-09-23T06:40:49.059Z,12.66
2018-09-23T06:41:49.654Z,12.67
2018-09-23T06:42:49.547Z,12.66
2018-09-23T06:43:49.270Z,12.66
2018-09-23T06:44:49.262Z,12.66
2018-09-23T06:45:49.742Z,12.69
2018-09-23T06:46:49.492Z,12.67
2018-09-23T06:47:49.213Z,12.66
2018-09-23T06:48:49.216Z,12.67
2018-09-23T06:49:48.917Z,12.71
2018-09-23T06:50:49.181Z,12.77
2018-09-23T06:51:49.623Z,12.69
2018-09-23T06:52:49.137Z,12.85
2018-09-23T06:53:49.068Z,12.77
2018-09-23T06:54:48.850Z,12.77
2018-09-23T06:55:49.367Z,12.77
2018-09-23T06:56:49.148Z,12.74
2018-09-23T06:57:49.063Z,12.79
2018-09-23T06:58:49.319Z,12.84
2018-09-23T06:59:48.770Z,12.84
2018-09-23T07:00:48.751Z,12.78
2018-09-23T07:01:49.264Z,12.92
2018-09-23T07:02:49.253Z,12.87
2018-09-23T07:03:48.973Z,12.89
2018-09-23T07:04:49.478Z,12.79
2018-09-23T07:05:48.950Z,12.89
2018-09-23T07:06:49.206Z,12.93
2018-09-23T07:07:49.180Z,12.95
2018-09-23T07:08:48.636Z,12.85
2018-09-23T07:09:48.879Z,12.88
2018-09-23T07:10:48.874Z,12.93
2018-09-23T07:11:48.850Z,12.95
2018-09-23T07:12:49.112Z,12.93
2018-09-23T07:13:48.832Z,12.93
2018-09-23T07:14:49.067Z,12.97
2018-09-23T07:15:48.792Z,12.87
2018-09-23T07:16:48.780Z,12.96
2018-09-23T07:17:48.766Z,12.93
2018-09-23T07:18:49.023Z,12.99
2018-09-23T07:19:49.011Z,12.99
2018-09-23T07:20:48.984Z,12.97
2018-09-23T07:21:48.716Z,13.03
2018-09-23T07:22:48.962Z,13.02
2018-09-23T07:23:49.232Z,13.07
2018-09-23T07:24:48.934Z,13.07
2018-09-23T07:25:48.646Z,13.09
2018-09-23T07:26:48.632Z,13.11
2018-09-23T07:27:48.622Z,13.07
2018-09-23T07:28:48.335Z,13.11
2018-09-23T07:29:48.863Z,13.12
2018-09-23T07:30:48.590Z,13.12
2018-09-23T07:31:48.552Z,13.09
2018-09-23T07:32:48.549Z,13.11
2018-09-23T07:33:48.268Z,13.12
2018-09-23T07:34:48.520Z,13.14
2018-09-23T07:35:48.498Z,13.14
2018-09-23T07:36:49.088Z,13.18
2018-09-23T07:37:48.476Z,13.22
2018-09-23T07:38:48.455Z,13.3
2018-09-23T07:39:48.185Z,13.25
2018-09-23T07:40:48.420Z,13.29
2018-09-23T07:41:48.698Z,13.25
2018-09-23T07:42:48.137Z,13.27
2018-09-23T07:43:48.656Z,13.3
2018-09-23T07:44:48.371Z,13.25
2018-09-23T07:45:48.616Z,13.25
2018-09-23T07:46:48.615Z,13.25
2018-09-23T07:47:48.340Z,13.24
2018-09-23T07:48:48.313Z,13.24
2018-09-23T07:49:48.560Z,13.25
2018-09-23T07:50:48.276Z,13.21
2018-09-23T07:51:48.528Z,13.25
2018-09-23T07:52:48.552Z,13.18
2018-09-23T07:53:48.258Z,13.27
2018-09-23T07:54:48.220Z,13.33
2018-09-23T07:55:48.210Z,13.33
2018-09-23T07:56:47.936Z,13.36
2018-09-23T07:57:47.915Z,13.37
2018-09-23T07:58:48.428Z,13.32
2018-09-23T07:59:48.411Z,13.43
2018-09-23T08:00:48.399Z,13.56
2018-09-23T08:01:48.411Z,13.65
2018-09-23T08:02:48.110Z,13.61
2018-09-23T08:03:48.365Z,13.67
2018-09-23T08:04:48.080Z,13.71
2018-09-23T08:05:48.066Z,13.77
2018-09-23T08:06:48.060Z,13.79
2018-09-23T08:07:48.301Z,13.76
2018-09-23T08:08:48.285Z,13.79
2018-09-23T08:09:48.281Z,13.76
2018-09-23T08:10:47.735Z,13.87
2018-09-23T08:11:48.293Z,13.89
2018-09-23T08:12:48.265Z,13.74
2018-09-23T08:13:48.942Z,13.71
2018-09-23T08:14:50.155Z,13.7
2018-09-23T08:15:48.187Z,13.8
2018-09-23T08:16:47.917Z,13.88
2018-09-23T08:17:47.898Z,13.79
2018-09-23T08:18:47.882Z,13.84
2018-09-23T08:19:48.596Z,13.76
2018-09-23T08:20:47.613Z,13.83
2018-09-23T08:21:47.844Z,13.8
2018-09-23T08:22:47.833Z,13.91
2018-09-23T08:23:47.818Z,13.87
2018-09-23T08:24:47.799Z,13.76
2018-09-23T08:25:48.353Z,13.83
2018-09-23T08:26:48.045Z,13.8
2018-09-23T08:27:47.764Z,13.84
2018-09-23T08:28:48.009Z,13.8
2018-09-23T08:29:47.731Z,13.83
2018-09-23T08:30:47.990Z,13.76
2018-09-23T08:31:47.706Z,13.73
2018-09-23T08:32:48.003Z,13.88
2018-09-23T08:33:47.676Z,13.87
2018-09-23T08:34:47.866Z,13.81
2018-09-23T08:35:47.907Z,13.73
2018-09-23T08:36:47.368Z,13.65
2018-09-23T08:37:47.359Z,13.63
2018-09-23T08:38:47.874Z,13.71
2018-09-23T08:39:47.686Z,13.77
2018-09-23T08:40:47.592Z,13.79
2018-09-23T08:41:47.566Z,13.83
2018-09-23T08:42:47.661Z,13.83
2018-09-23T08:43:47.811Z,13.79
2018-09-23T08:44:47.791Z,13.7
2018-09-23T08:45:47.245Z,13.87
2018-09-23T08:46:47.493Z,13.77
2018-09-23T08:47:47.848Z,13.81
2018-09-23T08:48:47.471Z,13.77
2018-09-23T08:49:47.460Z,13.77
2018-09-23T08:50:47.173Z,13.84
2018-09-23T08:51:48.027Z,13.79
2018-09-23T08:52:47.419Z,13.79
2018-09-23T08:53:47.143Z,13.79
2018-09-23T08:54:47.395Z,13.81
2018-09-23T08:55:47.636Z,13.79
2018-09-23T08:56:47.368Z,13.7
2018-09-23T08:57:47.867Z,13.73
2018-09-23T08:58:47.333Z,13.71
2018-09-23T08:59:47.588Z,13.76
2018-09-23T09:00:47.039Z,13.59
2018-09-23T09:01:47.294Z,13.77
2018-09-23T09:02:47.278Z,13.71
2018-09-23T09:03:47.050Z,13.7
2018-09-23T09:04:46.979Z,13.67
2018-09-23T09:05:47.498Z,13.73
2018-09-23T09:06:47.211Z,13.74
2018-09-23T09:07:47.464Z,13.71
2018-09-23T09:08:47.190Z,13.69
2018-09-23T09:09:47.177Z,13.76
2018-09-23T09:10:47.158Z,13.79
2018-09-23T09:11:47.372Z,13.73
2018-09-23T09:12:46.873Z,13.79
2018-09-23T09:13:47.122Z,13.83
2018-09-23T09:14:47.374Z,13.77
2018-09-23T09:15:47.363Z,13.73
2018-09-23T09:16:47.077Z,13.81
2018-09-23T09:17:46.801Z,13.84
2018-09-23T09:18:47.802Z,13.79
2018-09-23T09:19:47.044Z,13.8
2018-09-23T09:20:47.027Z,13.74
2018-09-23T09:21:47.006Z,13.88
2018-09-23T09:22:47.259Z,13.76
2018-09-23T09:23:46.979Z,13.8
2018-09-23T09:24:46.964Z,13.79
2018-09-23T09:25:47.224Z,13.76
2018-09-23T09:26:47.406Z,13.83
2018-09-23T09:27:46.921Z,13.81
2018-09-23T09:28:46.653Z,13.92
2018-09-23T09:29:47.176Z,13.83
2018-09-23T09:30:47.156Z,13.84
2018-09-23T09:31:47.141Z,13.87
2018-09-23T09:32:46.852Z,13.83
2018-09-23T09:33:46.571Z,13.89
2018-09-23T09:34:46.564Z,13.89
2018-09-23T09:35:46.550Z,13.88
2018-09-23T09:36:46.799Z,13.89
2018-09-23T09:37:46.523Z,13.87
2018-09-23T09:38:46.508Z,13.84
2018-09-23T09:39:46.499Z,13.87
2018-09-23T09:40:47.014Z,13.88
2018-09-23T09:41:46.993Z,13.92
2018-09-23T09:42:46.977Z,13.89
2018-09-23T09:43:46.699Z,13.96
2018-09-23T09:44:46.683Z,13.98
2018-09-23T09:45:46.678Z,13.89
2018-09-23T09:46:46.687Z,13.95
2018-09-23T09:47:46.670Z,13.89
2018-09-23T09:48:46.635Z,13.89
2018-09-23T09:49:46.638Z,13.76
2018-09-23T09:50:46.874Z,13.81
2018-09-23T09:51:46.856Z,13.79
2018-09-23T09:52:46.593Z,13.94
2018-09-23T09:53:46.575Z,13.94
2018-09-23T09:54:46.285Z,13.94
2018-09-23T09:55:46.273Z,13.87
2018-09-23T09:56:46.524Z,13.88
2018-09-23T09:57:46.259Z,13.94
2018-09-23T09:58:46.500Z,13.92
2018-09-23T09:59:46.499Z,13.88
2018-09-23T10:00:46.729Z,13.89
2018-09-23T10:01:46.450Z,13.83
2018-09-23T10:02:46.436Z,13.89
2018-09-23T10:03:46.567Z,13.89
2018-09-23T10:04:46.448Z,13.94
2018-09-23T10:05:46.155Z,13.95
2018-09-23T10:06:46.386Z,13.96
2018-09-23T10:07:46.380Z,13.95
2018-09-23T10:08:46.634Z,13.89
2018-09-23T10:09:46.340Z,13.88
2018-09-23T10:10:46.381Z,13.99
2018-09-23T10:11:46.318Z,13.98
2018-09-23T10:12:46.563Z,13.95
2018-09-23T10:13:46.285Z,13.94
2018-09-23T10:14:46.639Z,13.92
2018-09-23T10:15:46.276Z,13.8
2018-09-23T10:16:46.249Z,13.84
2018-09-23T10:17:46.496Z,13.84
2018-09-23T10:18:46.478Z,13.84
2018-09-23T10:19:45.961Z,13.81
2018-09-23T10:20:46.195Z,13.77
2018-09-23T10:21:46.178Z,13.92
2018-09-23T10:22:46.028Z,13.8
2018-09-23T10:23:46.660Z,13.83
2018-09-23T10:24:46.399Z,13.8
2018-09-23T10:25:46.121Z,13.79
2018-09-23T10:26:46.376Z,13.84
2018-09-23T10:27:46.094Z,13.87
2018-09-23T10:28:46.074Z,13.83
2018-09-23T10:29:46.129Z,13.73
2018-09-23T10:30:46.054Z,13.67
2018-09-23T10:31:45.788Z,13.71
2018-09-23T10:32:46.041Z,13.71
2018-09-23T10:33:46.323Z,13.76
2018-09-23T10:34:46.005Z,13.77
2018-09-23T10:35:46.269Z,13.62
2018-09-23T10:36:45.973Z,13.67
2018-09-23T10:37:46.221Z,13.63
2018-09-23T10:38:46.214Z,13.65
2018-09-23T10:39:45.921Z,13.73
2018-09-23T10:40:45.919Z,13.61
2018-09-23T10:41:46.177Z,13.56
2018-09-23T10:42:46.176Z,13.59
2018-09-23T10:43:46.134Z,13.52
2018-09-23T10:44:45.853Z,13.55
2018-09-23T10:45:46.112Z,13.47
2018-09-23T10:46:46.182Z,13.55
2018-09-23T10:47:45.808Z,13.49
2018-09-23T10:48:45.533Z,13.49
2018-09-23T10:49:45.531Z,13.37
2018-09-23T10:50:46.052Z,13.44
2018-09-23T10:51:46.017Z,13.41
2018-09-23T10:52:45.474Z,13.18
2018-09-23T10:53:45.729Z,13.32
2018-09-23T10:54:45.970Z,13.21
2018-09-23T10:55:45.908Z,13.21
2018-09-23T10:56:45.945Z,13.25
2018-09-23T10:57:45.678Z,13.11
2018-09-23T10:58:45.658Z,13.06
2018-09-23T10:59:45.931Z,13.06
2018-09-23T11:00:45.623Z,13.03
2018-09-23T11:01:45.666Z,13.02
2018-09-23T11:02:45.614Z,13.04
2018-09-23T11:03:46.121Z,13.18
2018-09-23T11:04:45.855Z,13.2
2018-09-23T11:05:45.563Z,13.14
2018-09-23T11:06:45.532Z,13.11
2018-09-23T11:07:45.527Z,13.07
2018-09-23T11:08:45.510Z,13.17
2018-09-23T11:09:45.724Z,13.07
2018-09-23T11:10:45.753Z,13.17
2018-09-23T11:11:45.462Z,13.22
2018-09-23T11:12:45.449Z,13.12
2018-09-23T11:13:45.436Z,13.07
2018-09-23T11:14:45.157Z,13.14
2018-09-23T11:15:45.665Z,13.04
2018-09-23T11:16:45.665Z,13.14
2018-09-23T11:17:45.375Z,13.07
2018-09-23T11:18:45.572Z,13.06
2018-09-23T11:19:45.345Z,13.12
2018-09-23T11:20:45.332Z,13.09
2018-09-23T11:21:45.586Z,13.07
2018-09-23T11:22:45.316Z,13.02
2018-09-23T11:23:45.032Z,13.06
2018-09-23T11:24:45.614Z,13.06
2018-09-23T11:25:45.532Z,13.09
2018-09-23T11:26:45.241Z,13.06
2018-09-23T11:27:45.501Z,13.04
2018-09-23T11:28:44.946Z,13.09
2018-09-23T11:29:45.461Z,13.17
2018-09-23T11:30:45.343Z,13.17
2018-09-23T11:31:45.646Z,13.07
2018-09-23T11:32:45.152Z,13.17
2018-09-23T11:33:45.141Z,13.11
2018-09-23T11:34:44.861Z,13.06
2018-09-23T11:35:45.133Z,12.97
2018-09-23T11:36:45.093Z,13.04
2018-09-23T11:37:45.356Z,12.99
2018-09-23T11:38:45.067Z,13.02
2018-09-23T11:39:45.060Z,13
2018-09-23T11:40:45.343Z,13
2018-09-23T11:41:45.033Z,13
2018-09-23T11:42:45.061Z,12.96
2018-09-23T11:43:45.253Z,13.07
2018-09-23T11:44:45.237Z,13
2018-09-23T11:45:45.243Z,13.07
2018-09-23T11:46:44.949Z,13.11
2018-09-23T11:47:44.937Z,13.12
2018-09-23T11:48:44.920Z,13.07
2018-09-23T11:49:44.902Z,13
2018-09-23T11:50:44.889Z,13.02
2018-09-23T11:51:44.605Z,12.99
2018-09-23T11:52:44.593Z,13
2018-09-23T11:53:45.112Z,12.99
2018-09-23T11:54:45.093Z,12.95
2018-09-23T11:55:45.079Z,12.82
2018-09-23T11:56:44.807Z,12.82
2018-09-23T11:57:45.068Z,12.78
2018-09-23T11:58:44.822Z,12.79
2018-09-23T11:59:45.015Z,12.78
2018-09-23T12:00:44.741Z,12.79
2018-09-23T12:01:45.391Z,12.75
2018-09-23T12:02:44.460Z,12.7
2018-09-23T12:03:44.972Z,12.7
2018-09-23T12:04:44.421Z,12.66
2018-09-23T12:05:44.408Z,12.63
2018-09-23T12:06:44.916Z,12.54
2018-09-23T12:07:44.378Z,12.66
2018-09-23T12:08:44.925Z,12.64
2018-09-23T12:09:44.618Z,12.56
2018-09-23T12:10:44.918Z,12.59
2018-09-23T12:11:44.585Z,12.57
2018-09-23T12:12:44.604Z,12.62
2018-09-23T12:13:44.276Z,12.6
2018-09-23T12:14:44.583Z,12.52
2018-09-23T12:15:44.415Z,12.48
2018-09-23T12:16:44.769Z,12.48
2018-09-23T12:17:44.480Z,12.51
2018-09-23T12:18:44.204Z,12.54
2018-09-23T12:19:44.190Z,12.45
2018-09-23T12:20:44.441Z,12.46
2018-09-23T12:21:44.427Z,12.38
2018-09-23T12:22:44.670Z,12.38
2018-09-23T12:23:44.391Z,12.39
2018-09-23T12:24:44.377Z,12.37
2018-09-23T12:25:45.299Z,12.38
2018-09-23T12:26:44.608Z,12.34
2018-09-23T12:27:44.596Z,12.39
2018-09-23T12:28:44.576Z,12.39
2018-09-23T12:29:44.477Z,12.34
2018-09-23T12:30:44.282Z,12.41
2018-09-23T12:31:44.545Z,12.39
2018-09-23T12:32:44.252Z,12.34
2018-09-23T12:33:43.976Z,12.41
2018-09-23T12:34:44.486Z,12.31
2018-09-23T12:35:44.207Z,12.44
2018-09-23T12:36:44.456Z,12.33
2018-09-23T12:37:43.911Z,12.39
2018-09-23T12:38:44.158Z,12.41
2018-09-23T12:39:44.216Z,12.38
2018-09-23T12:40:44.129Z,12.39
2018-09-23T12:41:44.383Z,12.42
2018-09-23T12:42:44.381Z,12.42
2018-09-23T12:43:44.360Z,12.44
2018-09-23T12:44:44.076Z,12.38
2018-09-23T12:45:44.057Z,12.29
2018-09-23T12:46:43.776Z,12.34
2018-09-23T12:47:44.032Z,12.23
2018-09-23T12:48:44.281Z,12.27
2018-09-23T12:49:44.001Z,12.27
2018-09-23T12:50:43.716Z,12.42
2018-09-23T12:51:44.239Z,12.26
2018-09-23T12:52:44.422Z,12.26
2018-09-23T12:53:43.945Z,12.26
2018-09-23T12:54:44.182Z,12.21